LICB/CIY METAR and TAF weather

Enter ICAO airport designator
Station Type Date Time Source
LICB METAR 2021/06/24 06:20 UTC NOAA

LICB 240620Z AUTO 01003KT 310V050 9999 NCD 29/16 Q1019


Station Type Date Time Source
LICB Decoded METAR 2021/06/24 06:20 UTC NOAA

Comiso As Usaf , Italy (LICB) 36-56N 014-36E
Jun 24, 2021 - 02:20 AM EDT / 2021.06.24 0620 UTC
Wind: from the N (010 degrees) at 3 MPH (3 KT) (direction variable):0
Visibility: greater than 7 mile(s):0
Temperature: 84 F (29 C)
Dew Point: 60 F (16 C)
Relative Humidity: 45%
Pressure (altimeter): 30.09 in. Hg (1019 hPa)
ob: LICB 240620Z AUTO 01003KT 310V050 9999 NCD 29/16 Q1019
cycle: 6

Station Type Date Time Source
LICB TAF 2021/06/24 06:00 UTC NOAA

TAF LICB 240500Z 2406/2506 VRB05KT CAVOK
BECMG 2408/2410 26010KT
BECMG 2418/2420 VRB05KT

Example: see airport list